TimeCDT,TemperatureF,Dew PointF,Humidity,Sea Level PressureIn,VisibilityMPH,Wind Direction,Wind SpeedMPH,Gust SpeedMPH,PrecipitationIn,Events,Conditions,WindDirDegrees,DateUTC
12:53 AM,59.0,54.0,83,29.93,10.0,ESE,10.4,-,0.00,,Overcast,110,2013-05-25 05:53:00
1:06 AM,57.2,55.4,94,29.98,10.0,ESE,11.5,-,0.00,Rain-Thunderstorm,Light Rain,110,2013-05-25 06:06:00
1:36 AM,59.0,55.4,88,29.98,10.0,ENE,9.2,-,0.00,,Overcast,70,2013-05-25 06:36:00
1:53 AM,60.1,54.0,80,29.90,10.0,ENE,12.7,-,0.00,,Mostly Cloudy,70,2013-05-25 06:53:00
2:53 AM,63.0,54.0,72,29.89,10.0,East,16.1,25.3,N/A,,Mostly Cloudy,80,2013-05-25 07:53:00
3:37 AM,62.6,53.6,72,29.96,10.0,ENE,19.6,-,N/A,,Overcast,70,2013-05-25 08:37:00
3:53 AM,63.0,54.0,72,29.91,10.0,East,25.3,31.1,N/A,,Overcast,80,2013-05-25 08:53:00
4:53 AM,62.1,54.0,75,29.94,10.0,East,15.0,-,N/A,,Overcast,100,2013-05-25 09:53:00
5:53 AM,61.0,52.0,72,29.93,10.0,ESE,15.0,-,N/A,,Partly Cloudy,120,2013-05-25 10:53:00
6:53 AM,60.1,52.0,75,29.93,10.0,ESE,20.7,25.3,N/A,,Clear,120,2013-05-25 11:53:00
7:53 AM,61.0,53.1,75,29.95,10.0,ESE,16.1,23.0,N/A,,Scattered Clouds,120,2013-05-25 12:53:00
8:53 AM,64.0,53.1,67,29.94,10.0,ESE,20.7,32.2,N/A,,Clear,120,2013-05-25 13:53:00
9:53 AM,66.9,55.9,68,29.95,10.0,ESE,15.0,-,N/A,,Scattered Clouds,120,2013-05-25 14:53:00
10:53 AM,70.0,59.0,68,29.92,10.0,SE,16.1,25.3,N/A,,Partly Cloudy,140,2013-05-25 15:53:00
11:53 AM,75.0,61.0,62,29.90,10.0,South,13.8,20.7,N/A,,Clear,170,2013-05-25 16:53:00
12:53 PM,77.0,61.0,58,29.88,10.0,South,12.7,-,N/A,,Clear,190,2013-05-25 17:53:00
1:53 PM,79.0,60.1,52,29.86,10.0,SSE,11.5,17.3,N/A,,Partly Cloudy,150,2013-05-25 18:53:00
2:53 PM,82.0,60.1,47,29.83,10.0,South,8.1,-,N/A,,Clear,170,2013-05-25 19:53:00
3:53 PM,84.0,60.1,44,29.81,10.0,Variable,4.6,-,N/A,,Clear,0,2013-05-25 20:53:00
4:53 PM,86.0,61.0,43,29.79,10.0,SSE,8.1,-,N/A,,Clear,150,2013-05-25 21:53:00
5:53 PM,87.1,61.0,41,29.76,10.0,ESE,8.1,-,N/A,,Clear,120,2013-05-25 22:53:00
6:53 PM,84.9,61.0,44,29.75,10.0,SE,8.1,-,N/A,,Clear,130,2013-05-25 23:53:00
7:53 PM,78.1,64.0,62,29.75,10.0,ESE,9.2,-,N/A,Thunderstorm,Scattered Clouds,110,2013-05-26 00:53:00
8:25 PM,78.8,60.8,54,29.84,10.0,SE,9.2,-,N/A,,Partly Cloudy,130,2013-05-26 01:25:00
8:53 PM,73.0,62.1,68,29.78,10.0,East,8.1,-,N/A,,Clear,100,2013-05-26 01:53:00
9:53 PM,73.0,52.0,48,29.80,10.0,SSE,5.8,-,N/A,,Clear,150,2013-05-26 02:53:00
10:53 PM,64.9,51.1,61,29.80,10.0,ESE,6.9,-,N/A,,Clear,120,2013-05-26 03:53:00
11:53 PM,63.0,51.1,65,29.81,10.0,SE,5.8,-,N/A,,Clear,140,2013-05-26 04:53:00